sensor_id;sensor_type;location;lat;lon;timestamp;P1;durP1;ratioP1;P2;durP2;ratioP2
69703;SDS011;56967;43.538;-5.646;2022-10-24T00:02:12;0.95;;;0.43;;
69703;SDS011;56967;43.538;-5.646;2022-10-24T00:04:38;1.02;;;0.52;;
69703;SDS011;56967;43.538;-5.646;2022-10-24T00:07:05;0.85;;;0.60;;
69703;SDS011;56967;43.538;-5.646;2022-10-24T00:09:32;2.42;;;0.70;;
69703;SDS011;56967;43.538;-5.646;2022-10-24T00:11:59;1.10;;;0.60;;
69703;SDS011;56967;43.538;-5.646;2022-10-24T00:14:25;9.10;;;0.80;;
69703;SDS011;56967;43.538;-5.646;2022-10-24T00:16:51;1.02;;;0.50;;
69703;SDS011;56967;43.538;-5.646;2022-10-24T00:19:16;1.67;;;0.75;;
69703;SDS011;56967;43.538;-5.646;2022-10-24T00:21:42;4.93;;;0.77;;
69703;SDS011;56967;43.538;-5.646;2022-10-24T00:24:07;0.95;;;0.60;;
69703;SDS011;56967;43.538;-5.646;2022-10-24T00:26:33;0.90;;;0.50;;
69703;SDS011;56967;43.538;-5.646;2022-10-24T00:28:59;1.63;;;0.70;;
69703;SDS011;56967;43.538;-5.646;2022-10-24T00:31:25;1.83;;;0.50;;
69703;SDS011;56967;43.538;-5.646;2022-10-24T00:33:52;1.08;;;0.70;;
69703;SDS011;56967;43.538;-5.646;2022-10-24T00:36:18;2.22;;;0.60;;
69703;SDS011;56967;43.538;-5.646;2022-10-24T00:38:46;0.75;;;0.50;;
69703;SDS011;56967;43.538;-5.646;2022-10-24T00:41:16;1.70;;;0.60;;
69703;SDS011;56967;43.538;-5.646;2022-10-24T00:43:44;2.92;;;0.70;;
69703;SDS011;56967;43.538;-5.646;2022-10-24T00:46:10;1.20;;;0.50;;
69703;SDS011;56967;43.538;-5.646;2022-10-24T00:48:40;0.70;;;0.50;;
69703;SDS011;56967;43.538;-5.646;2022-10-24T00:53:43;1.58;;;0.50;;
69703;SDS011;56967;43.538;-5.646;2022-10-24T00:56:12;1.13;;;0.47;;
69703;SDS011;56967;43.538;-5.646;2022-10-24T00:58:39;3.40;;;0.50;;
69703;SDS011;56967;43.538;-5.646;2022-10-24T01:01:07;0.93;;;0.50;;
69703;SDS011;56967;43.538;-5.646;2022-10-24T01:03:33;0.85;;;0.60;;
69703;SDS011;56967;43.538;-5.646;2022-10-24T01:14:36;0.82;;;0.50;;
69703;SDS011;56967;43.538;-5.646;2022-10-24T01:17:16;0.77;;;0.50;;
69703;SDS011;56967;43.538;-5.646;2022-10-24T01:20:03;1.02;;;0.63;;
69703;SDS011;56967;43.538;-5.646;2022-10-24T01:22:40;1.52;;;0.50;;
69703;SDS011;56967;43.538;-5.646;2022-10-24T01:25:46;1.88;;;0.55;;
69703;SDS011;56967;43.538;-5.646;2022-10-24T01:28:29;2.50;;;0.70;;
69703;SDS011;56967;43.538;-5.646;2022-10-24T01:31:05;14.05;;;1.92;;
69703;SDS011;56967;43.538;-5.646;2022-10-24T01:33:37;8.80;;;1.40;;
69703;SDS011;56967;43.538;-5.646;2022-10-24T01:36:10;2.08;;;0.80;;
69703;SDS011;56967;43.538;-5.646;2022-10-24T01:38:41;1.30;;;0.60;;
69703;SDS011;56967;43.538;-5.646;2022-10-24T01:41:12;1.25;;;0.50;;
69703;SDS011;56967;43.538;-5.646;2022-10-24T01:43:51;0.90;;;0.50;;
69703;SDS011;56967;43.538;-5.646;2022-10-24T01:46:21;0.95;;;0.55;;
69703;SDS011;56967;43.538;-5.646;2022-10-24T01:48:55;1.35;;;0.65;;
69703;SDS011;56967;43.538;-5.646;2022-10-24T01:51:25;1.05;;;0.50;;
69703;SDS011;56967;43.538;-5.646;2022-10-24T01:53:53;0.93;;;0.50;;
69703;SDS011;56967;43.538;-5.646;2022-10-24T01:56:20;1.48;;;0.60;;
69703;SDS011;56967;43.538;-5.646;2022-10-24T01:58:45;0.95;;;0.60;;
69703;SDS011;56967;43.538;-5.646;2022-10-24T02:01:13;13.18;;;2.17;;
69703;SDS011;56967;43.538;-5.646;2022-10-24T02:03:49;3.45;;;1.00;;
69703;SDS011;56967;43.538;-5.646;2022-10-24T02:06:32;1.88;;;0.70;;
69703;SDS011;56967;43.538;-5.646;2022-10-24T02:09:02;4.47;;;0.88;;
69703;SDS011;56967;43.538;-5.646;2022-10-24T02:11:31;6.78;;;1.15;;
69703;SDS011;56967;43.538;-5.646;2022-10-24T02:14:01;1.95;;;0.75;;
69703;SDS011;56967;43.538;-5.646;2022-10-24T02:16:30;2.78;;;0.70;;
69703;SDS011;56967;43.538;-5.646;2022-10-24T02:18:57;0.93;;;0.60;;
69703;SDS011;56967;43.538;-5.646;2022-10-24T02:24:19;1.00;;;0.55;;
69703;SDS011;56967;43.538;-5.646;2022-10-24T02:26:55;1.50;;;0.70;;
69703;SDS011;56967;43.538;-5.646;2022-10-24T02:31:56;1.63;;;0.73;;
69703;SDS011;56967;43.538;-5.646;2022-10-24T02:34:24;2.85;;;0.60;;
69703;SDS011;56967;43.538;-5.646;2022-10-24T02:36:54;1.33;;;0.68;;
69703;SDS011;56967;43.538;-5.646;2022-10-24T02:39:21;1.40;;;0.60;;
69703;SDS011;56967;43.538;-5.646;2022-10-24T02:41:47;1.25;;;0.65;;
69703;SDS011;56967;43.538;-5.646;2022-10-24T02:44:15;0.85;;;0.68;;
69703;SDS011;56967;43.538;-5.646;2022-10-24T02:46:43;1.88;;;0.60;;
69703;SDS011;56967;43.538;-5.646;2022-10-24T02:49:10;3.80;;;0.80;;
69703;SDS011;56967;43.538;-5.646;2022-10-24T02:51:37;0.80;;;0.60;;
69703;SDS011;56967;43.538;-5.646;2022-10-24T02:54:05;1.00;;;0.60;;
69703;SDS011;56967;43.538;-5.646;2022-10-24T02:56:31;2.60;;;0.85;;
69703;SDS011;56967;43.538;-5.646;2022-10-24T02:58:58;1.35;;;0.50;;
69703;SDS011;56967;43.538;-5.646;2022-10-24T03:01:23;1.17;;;0.70;;
69703;SDS011;56967;43.538;-5.646;2022-10-24T03:03:49;2.28;;;0.50;;
69703;SDS011;56967;43.538;-5.646;2022-10-24T03:06:14;2.08;;;0.52;;
69703;SDS011;56967;43.538;-5.646;2022-10-24T03:08:40;1.70;;;0.50;;
69703;SDS011;56967;43.538;-5.646;2022-10-24T03:11:06;1.52;;;0.40;;
69703;SDS011;56967;43.538;-5.646;2022-10-24T03:13:32;0.73;;;0.50;;
69703;SDS011;56967;43.538;-5.646;2022-10-24T03:15:58;1.80;;;0.30;;
69703;SDS011;56967;43.538;-5.646;2022-10-24T03:18:23;0.50;;;0.40;;
69703;SDS011;56967;43.538;-5.646;2022-10-24T03:20:49;0.75;;;0.40;;
69703;SDS011;56967;43.538;-5.646;2022-10-24T03:23:14;0.80;;;0.52;;
69703;SDS011;56967;43.538;-5.646;2022-10-24T03:25:40;0.55;;;0.50;;
69703;SDS011;56967;43.538;-5.646;2022-10-24T03:28:06;2.15;;;0.63;;
69703;SDS011;56967;43.538;-5.646;2022-10-24T03:30:32;1.38;;;0.80;;
69703;SDS011;56967;43.538;-5.646;2022-10-24T03:33:00;1.00;;;0.40;;
69703;SDS011;56967;43.538;-5.646;2022-10-24T03:35:26;2.40;;;0.55;;
69703;SDS011;56967;43.538;-5.646;2022-10-24T03:37:51;0.40;;;0.40;;
69703;SDS011;56967;43.538;-5.646;2022-10-24T03:40:17;1.23;;;0.50;;
69703;SDS011;56967;43.538;-5.646;2022-10-24T03:42:46;0.88;;;0.40;;
69703;SDS011;56967;43.538;-5.646;2022-10-24T03:45:12;1.25;;;0.60;;
69703;SDS011;56967;43.538;-5.646;2022-10-24T03:47:37;0.65;;;0.50;;
69703;SDS011;56967;43.538;-5.646;2022-10-24T03:50:03;1.58;;;0.60;;
69703;SDS011;56967;43.538;-5.646;2022-10-24T03:52:30;0.90;;;0.40;;
69703;SDS011;56967;43.538;-5.646;2022-10-24T03:54:55;1.05;;;0.50;;
69703;SDS011;56967;43.538;-5.646;2022-10-24T03:57:24;1.23;;;0.50;;
69703;SDS011;56967;43.538;-5.646;2022-10-24T03:59:50;1.35;;;0.80;;
69703;SDS011;56967;43.538;-5.646;2022-10-24T04:02:16;1.33;;;0.40;;
69703;SDS011;56967;43.538;-5.646;2022-10-24T04:04:41;0.80;;;0.50;;
69703;SDS011;56967;43.538;-5.646;2022-10-24T04:07:07;0.82;;;0.50;;
69703;SDS011;56967;43.538;-5.646;2022-10-24T04:09:33;1.08;;;0.50;;
69703;SDS011;56967;43.538;-5.646;2022-10-24T04:11:58;1.25;;;0.50;;
69703;SDS011;56967;43.538;-5.646;2022-10-24T04:14:24;1.35;;;0.50;;
69703;SDS011;56967;43.538;-5.646;2022-10-24T04:16:49;0.85;;;0.60;;
69703;SDS011;56967;43.538;-5.646;2022-10-24T04:19:15;3.50;;;0.80;;
69703;SDS011;56967;43.538;-5.646;2022-10-24T04:21:43;1.35;;;0.85;;
69703;SDS011;56967;43.538;-5.646;2022-10-24T04:24:11;3.15;;;0.60;;
69703;SDS011;56967;43.538;-5.646;2022-10-24T04:26:43;2.28;;;0.70;;
69703;SDS011;56967;43.538;-5.646;2022-10-24T04:29:08;2.03;;;0.70;;
69703;SDS011;56967;43.538;-5.646;2022-10-24T04:31:37;1.13;;;0.60;;
69703;SDS011;56967;43.538;-5.646;2022-10-24T04:34:06;0.80;;;0.57;;
69703;SDS011;56967;43.538;-5.646;2022-10-24T04:36:32;2.88;;;0.60;;
69703;SDS011;56967;43.538;-5.646;2022-10-24T04:38:58;1.10;;;0.55;;
69703;SDS011;56967;43.538;-5.646;2022-10-24T04:41:23;1.38;;;0.60;;
69703;SDS011;56967;43.538;-5.646;2022-10-24T04:43:50;1.30;;;0.60;;
69703;SDS011;56967;43.538;-5.646;2022-10-24T04:46:19;1.73;;;0.60;;
69703;SDS011;56967;43.538;-5.646;2022-10-24T04:48:52;3.75;;;0.70;;
69703;SDS011;56967;43.538;-5.646;2022-10-24T04:51:17;0.82;;;0.60;;
69703;SDS011;56967;43.538;-5.646;2022-10-24T04:53:43;0.90;;;0.70;;
69703;SDS011;56967;43.538;-5.646;2022-10-24T04:56:09;1.38;;;0.60;;
69703;SDS011;56967;43.538;-5.646;2022-10-24T04:58:34;2.70;;;0.77;;
69703;SDS011;56967;43.538;-5.646;2022-10-24T05:01:00;1.67;;;0.65;;
69703;SDS011;56967;43.538;-5.646;2022-10-24T05:03:25;1.10;;;0.70;;
69703;SDS011;56967;43.538;-5.646;2022-10-24T05:05:51;1.20;;;0.70;;
69703;SDS011;56967;43.538;-5.646;2022-10-24T05:08:16;3.00;;;0.95;;
69703;SDS011;56967;43.538;-5.646;2022-10-24T05:10:42;2.55;;;1.90;;
69703;SDS011;56967;43.538;-5.646;2022-10-24T05:13:08;1.88;;;0.90;;
69703;SDS011;56967;43.538;-5.646;2022-10-24T05:15:33;1.58;;;0.73;;
69703;SDS011;56967;43.538;-5.646;2022-10-24T05:17:59;1.75;;;0.68;;
69703;SDS011;56967;43.538;-5.646;2022-10-24T05:20:25;1.67;;;0.68;;
69703;SDS011;56967;43.538;-5.646;2022-10-24T05:22:51;1.48;;;0.85;;
69703;SDS011;56967;43.538;-5.646;2022-10-24T05:25:17;2.55;;;1.20;;
69703;SDS011;56967;43.538;-5.646;2022-10-24T05:27:43;2.30;;;1.00;;
69703;SDS011;56967;43.538;-5.646;2022-10-24T05:30:18;4.15;;;1.00;;
69703;SDS011;56967;43.538;-5.646;2022-10-24T05:32:44;1.95;;;0.70;;
69703;SDS011;56967;43.538;-5.646;2022-10-24T05:35:12;1.83;;;0.80;;
69703;SDS011;56967;43.538;-5.646;2022-10-24T05:37:38;1.48;;;0.70;;
69703;SDS011;56967;43.538;-5.646;2022-10-24T05:40:05;2.08;;;0.90;;
69703;SDS011;56967;43.538;-5.646;2022-10-24T05:42:32;2.97;;;0.93;;
69703;SDS011;56967;43.538;-5.646;2022-10-24T05:44:58;1.60;;;0.80;;
69703;SDS011;56967;43.538;-5.646;2022-10-24T05:47:23;1.77;;;0.80;;
69703;SDS011;56967;43.538;-5.646;2022-10-24T05:49:49;3.17;;;1.52;;
69703;SDS011;56967;43.538;-5.646;2022-10-24T05:52:14;2.42;;;1.20;;
69703;SDS011;56967;43.538;-5.646;2022-10-24T05:54:40;1.60;;;0.98;;
69703;SDS011;56967;43.538;-5.646;2022-10-24T05:57:05;2.15;;;1.23;;
69703;SDS011;56967;43.538;-5.646;2022-10-24T05:59:31;6.28;;;1.42;;
69703;SDS011;56967;43.538;-5.646;2022-10-24T06:01:56;3.63;;;1.17;;
69703;SDS011;56967;43.538;-5.646;2022-10-24T06:04:22;1.33;;;1.02;;
69703;SDS011;56967;43.538;-5.646;2022-10-24T06:06:48;1.65;;;0.93;;
69703;SDS011;56967;43.538;-5.646;2022-10-24T06:09:13;2.15;;;0.80;;
69703;SDS011;56967;43.538;-5.646;2022-10-24T06:11:39;2.15;;;0.98;;
69703;SDS011;56967;43.538;-5.646;2022-10-24T06:14:05;2.92;;;1.08;;
69703;SDS011;56967;43.538;-5.646;2022-10-24T06:16:30;2.47;;;1.00;;
69703;SDS011;56967;43.538;-5.646;2022-10-24T06:18:58;2.38;;;1.13;;
69703;SDS011;56967;43.538;-5.646;2022-10-24T06:21:23;2.30;;;1.10;;
69703;SDS011;56967;43.538;-5.646;2022-10-24T06:23:49;2.38;;;1.15;;
69703;SDS011;56967;43.538;-5.646;2022-10-24T06:26:15;4.95;;;1.50;;
69703;SDS011;56967;43.538;-5.646;2022-10-24T06:28:41;1.90;;;1.00;;
69703;SDS011;56967;43.538;-5.646;2022-10-24T06:31:07;3.10;;;1.50;;
69703;SDS011;56967;43.538;-5.646;2022-10-24T06:33:33;2.72;;;1.20;;
69703;SDS011;56967;43.538;-5.646;2022-10-24T06:35:59;3.22;;;1.60;;
69703;SDS011;56967;43.538;-5.646;2022-10-24T06:38:26;3.28;;;1.50;;
69703;SDS011;56967;43.538;-5.646;2022-10-24T06:40:52;3.88;;;1.60;;
69703;SDS011;56967;43.538;-5.646;2022-10-24T06:43:17;3.33;;;1.55;;
69703;SDS011;56967;43.538;-5.646;2022-10-24T06:45:46;4.65;;;1.55;;
69703;SDS011;56967;43.538;-5.646;2022-10-24T06:48:11;2.75;;;1.27;;
69703;SDS011;56967;43.538;-5.646;2022-10-24T06:50:37;2.75;;;1.23;;
69703;SDS011;56967;43.538;-5.646;2022-10-24T06:53:05;3.05;;;1.70;;
69703;SDS011;56967;43.538;-5.646;2022-10-24T06:55:33;3.25;;;1.30;;
69703;SDS011;56967;43.538;-5.646;2022-10-24T06:58:01;2.83;;;1.42;;
69703;SDS011;56967;43.538;-5.646;2022-10-24T07:00:27;4.95;;;1.30;;
69703;SDS011;56967;43.538;-5.646;2022-10-24T07:02:52;5.75;;;1.30;;
69703;SDS011;56967;43.538;-5.646;2022-10-24T07:05:18;2.22;;;1.23;;
69703;SDS011;56967;43.538;-5.646;2022-10-24T07:07:44;2.90;;;1.77;;
69703;SDS011;56967;43.538;-5.646;2022-10-24T07:10:10;3.58;;;1.77;;
69703;SDS011;56967;43.538;-5.646;2022-10-24T07:12:38;3.60;;;1.52;;
69703;SDS011;56967;43.538;-5.646;2022-10-24T07:15:04;4.63;;;1.20;;
69703;SDS011;56967;43.538;-5.646;2022-10-24T07:17:30;5.50;;;1.67;;
69703;SDS011;56967;43.538;-5.646;2022-10-24T07:19:56;2.78;;;1.60;;
69703;SDS011;56967;43.538;-5.646;2022-10-24T07:22:22;3.95;;;1.80;;
69703;SDS011;56967;43.538;-5.646;2022-10-24T07:24:52;6.93;;;2.08;;
69703;SDS011;56967;43.538;-5.646;2022-10-24T07:27:19;6.85;;;2.00;;
69703;SDS011;56967;43.538;-5.646;2022-10-24T07:29:45;4.22;;;1.98;;
69703;SDS011;56967;43.538;-5.646;2022-10-24T07:32:10;5.13;;;2.13;;
69703;SDS011;56967;43.538;-5.646;2022-10-24T07:34:37;4.97;;;3.05;;
69703;SDS011;56967;43.538;-5.646;2022-10-24T07:37:04;5.05;;;1.90;;
69703;SDS011;56967;43.538;-5.646;2022-10-24T07:39:29;6.95;;;2.10;;
69703;SDS011;56967;43.538;-5.646;2022-10-24T07:41:55;3.40;;;1.70;;
69703;SDS011;56967;43.538;-5.646;2022-10-24T07:44:21;8.77;;;2.15;;
69703;SDS011;56967;43.538;-5.646;2022-10-24T07:46:46;9.32;;;2.00;;
69703;SDS011;56967;43.538;-5.646;2022-10-24T07:49:12;4.97;;;1.80;;
69703;SDS011;56967;43.538;-5.646;2022-10-24T07:51:39;3.55;;;1.50;;
69703;SDS011;56967;43.538;-5.646;2022-10-24T07:54:04;4.00;;;1.50;;
69703;SDS011;56967;43.538;-5.646;2022-10-24T07:56:30;2.72;;;1.77;;
69703;SDS011;56967;43.538;-5.646;2022-10-24T07:58:55;4.70;;;1.90;;
69703;SDS011;56967;43.538;-5.646;2022-10-24T08:01:23;4.13;;;1.95;;
69703;SDS011;56967;43.538;-5.646;2022-10-24T08:03:49;6.97;;;3.03;;
69703;SDS011;56967;43.538;-5.646;2022-10-24T08:06:16;4.20;;;1.80;;
69703;SDS011;56967;43.538;-5.646;2022-10-24T08:08:43;5.75;;;2.00;;
69703;SDS011;56967;43.538;-5.646;2022-10-24T08:11:13;5.93;;;2.05;;
69703;SDS011;56967;43.538;-5.646;2022-10-24T08:13:42;5.63;;;3.42;;
69703;SDS011;56967;43.538;-5.646;2022-10-24T08:16:09;4.68;;;2.30;;
69703;SDS011;56967;43.538;-5.646;2022-10-24T08:18:37;10.43;;;2.15;;
69703;SDS011;56967;43.538;-5.646;2022-10-24T08:21:03;6.40;;;3.00;;
69703;SDS011;56967;43.538;-5.646;2022-10-24T08:23:31;3.83;;;1.80;;
69703;SDS011;56967;43.538;-5.646;2022-10-24T08:25:58;4.60;;;1.98;;
69703;SDS011;56967;43.538;-5.646;2022-10-24T08:28:24;3.85;;;2.10;;
69703;SDS011;56967;43.538;-5.646;2022-10-24T08:30:56;4.85;;;1.73;;
69703;SDS011;56967;43.538;-5.646;2022-10-24T08:33:27;3.95;;;1.77;;
69703;SDS011;56967;43.538;-5.646;2022-10-24T08:35:54;3.33;;;1.98;;
69703;SDS011;56967;43.538;-5.646;2022-10-24T08:38:25;3.22;;;1.70;;
69703;SDS011;56967;43.538;-5.646;2022-10-24T08:40:52;5.80;;;1.80;;
69703;SDS011;56967;43.538;-5.646;2022-10-24T08:43:18;6.20;;;2.10;;
69703;SDS011;56967;43.538;-5.646;2022-10-24T08:48:21;6.28;;;2.17;;
69703;SDS011;56967;43.538;-5.646;2022-10-24T08:50:52;7.00;;;2.60;;
69703;SDS011;56967;43.538;-5.646;2022-10-24T08:53:24;7.45;;;2.40;;
69703;SDS011;56967;43.538;-5.646;2022-10-24T08:55:53;7.07;;;2.13;;
69703;SDS011;56967;43.538;-5.646;2022-10-24T08:58:22;4.82;;;2.10;;
69703;SDS011;56967;43.538;-5.646;2022-10-24T09:00:49;4.43;;;1.80;;
69703;SDS011;56967;43.538;-5.646;2022-10-24T09:05:50;6.78;;;2.50;;
69703;SDS011;56967;43.538;-5.646;2022-10-24T09:08:29;5.75;;;2.10;;
69703;SDS011;56967;43.538;-5.646;2022-10-24T09:10:58;5.50;;;2.13;;
69703;SDS011;56967;43.538;-5.646;2022-10-24T09:13:27;8.15;;;2.40;;
69703;SDS011;56967;43.538;-5.646;2022-10-24T09:15:54;3.67;;;1.92;;
69703;SDS011;56967;43.538;-5.646;2022-10-24T09:18:21;7.20;;;2.47;;
69703;SDS011;56967;43.538;-5.646;2022-10-24T09:20:49;8.30;;;3.05;;
69703;SDS011;56967;43.538;-5.646;2022-10-24T09:23:16;6.85;;;3.10;;
69703;SDS011;56967;43.538;-5.646;2022-10-24T09:25:46;3.50;;;2.25;;
69703;SDS011;56967;43.538;-5.646;2022-10-24T09:28:14;4.70;;;2.40;;
69703;SDS011;56967;43.538;-5.646;2022-10-24T09:30:40;6.07;;;2.72;;
69703;SDS011;56967;43.538;-5.646;2022-10-24T09:33:26;7.35;;;3.00;;
69703;SDS011;56967;43.538;-5.646;2022-10-24T09:35:59;5.40;;;2.60;;
69703;SDS011;56967;43.538;-5.646;2022-10-24T09:38:30;5.53;;;2.53;;
69703;SDS011;56967;43.538;-5.646;2022-10-24T09:46:27;7.63;;;3.40;;
69703;SDS011;56967;43.538;-5.646;2022-10-24T09:49:03;7.47;;;3.47;;
69703;SDS011;56967;43.538;-5.646;2022-10-24T09:51:46;10.02;;;3.00;;
69703;SDS011;56967;43.538;-5.646;2022-10-24T09:56:43;8.05;;;3.00;;
69703;SDS011;56967;43.538;-5.646;2022-10-24T10:04:31;11.07;;;3.75;;
69703;SDS011;56967;43.538;-5.646;2022-10-24T10:06:56;8.70;;;3.70;;
69703;SDS011;56967;43.538;-5.646;2022-10-24T10:09:23;9.63;;;3.92;;
69703;SDS011;56967;43.538;-5.646;2022-10-24T10:11:55;10.73;;;3.63;;
69703;SDS011;56967;43.538;-5.646;2022-10-24T10:14:23;8.82;;;4.13;;
69703;SDS011;56967;43.538;-5.646;2022-10-24T10:17:00;9.45;;;4.10;;
69703;SDS011;56967;43.538;-5.646;2022-10-24T10:19:38;20.33;;;5.30;;
69703;SDS011;56967;43.538;-5.646;2022-10-24T10:22:25;30.15;;;5.88;;
69703;SDS011;56967;43.538;-5.646;2022-10-24T10:24:53;22.83;;;5.60;;
69703;SDS011;56967;43.538;-5.646;2022-10-24T10:27:27;19.52;;;4.05;;
69703;SDS011;56967;43.538;-5.646;2022-10-24T10:36:00;13.38;;;5.75;;
69703;SDS011;56967;43.538;-5.646;2022-10-24T10:49:36;17.23;;;5.03;;
69703;SDS011;56967;43.538;-5.646;2022-10-24T10:57:44;18.35;;;6.07;;
69703;SDS011;56967;43.538;-5.646;2022-10-24T11:00:43;18.55;;;4.22;;
69703;SDS011;56967;43.538;-5.646;2022-10-24T11:06:19;13.73;;;3.55;;
69703;SDS011;56967;43.538;-5.646;2022-10-24T11:11:24;11.43;;;3.30;;
69703;SDS011;56967;43.538;-5.646;2022-10-24T11:14:35;14.65;;;3.42;;
69703;SDS011;56967;43.538;-5.646;2022-10-24T11:16:50;15.85;;;3.45;;
69703;SDS011;56967;43.538;-5.646;2022-10-24T11:19:27;7.35;;;2.13;;
69703;SDS011;56967;43.538;-5.646;2022-10-24T11:21:58;17.17;;;3.20;;
69703;SDS011;56967;43.538;-5.646;2022-10-24T11:24:38;12.00;;;2.65;;
69703;SDS011;56967;43.538;-5.646;2022-10-24T11:27:11;7.35;;;1.88;;
69703;SDS011;56967;43.538;-5.646;2022-10-24T11:30:02;12.30;;;2.13;;
69703;SDS011;56967;43.538;-5.646;2022-10-24T11:35:18;6.63;;;1.58;;
69703;SDS011;56967;43.538;-5.646;2022-10-24T11:37:49;6.90;;;1.73;;
69703;SDS011;56967;43.538;-5.646;2022-10-24T11:40:20;11.73;;;1.90;;
69703;SDS011;56967;43.538;-5.646;2022-10-24T11:45:43;13.63;;;2.38;;
69703;SDS011;56967;43.538;-5.646;2022-10-24T11:59:06;16.50;;;2.83;;
69703;SDS011;56967;43.538;-5.646;2022-10-24T12:12:52;10.88;;;1.98;;
69703;SDS011;56967;43.538;-5.646;2022-10-24T12:18:09;5.88;;;1.50;;
69703;SDS011;56967;43.538;-5.646;2022-10-24T12:20:55;11.40;;;2.00;;
69703;SDS011;56967;43.538;-5.646;2022-10-24T12:23:25;5.97;;;1.70;;
69703;SDS011;56967;43.538;-5.646;2022-10-24T12:26:51;7.10;;;1.65;;
69703;SDS011;56967;43.538;-5.646;2022-10-24T12:31:20;2.60;;;0.95;;
69703;SDS011;56967;43.538;-5.646;2022-10-24T12:39:48;7.70;;;1.50;;
69703;SDS011;56967;43.538;-5.646;2022-10-24T12:44:46;6.85;;;1.15;;
69703;SDS011;56967;43.538;-5.646;2022-10-24T12:47:36;3.97;;;1.20;;
69703;SDS011;56967;43.538;-5.646;2022-10-24T12:55:30;5.22;;;1.20;;
69703;SDS011;56967;43.538;-5.646;2022-10-24T13:00:53;6.88;;;1.63;;
69703;SDS011;56967;43.538;-5.646;2022-10-24T13:03:38;4.93;;;1.15;;
69703;SDS011;56967;43.538;-5.646;2022-10-24T13:17:31;7.15;;;1.73;;
69703;SDS011;56967;43.538;-5.646;2022-10-24T13:20:35;7.65;;;1.20;;
69703;SDS011;56967;43.538;-5.646;2022-10-24T13:23:26;8.23;;;1.25;;
69703;SDS011;56967;43.538;-5.646;2022-10-24T13:25:55;5.50;;;1.20;;
69703;SDS011;56967;43.538;-5.646;2022-10-24T13:38:30;8.90;;;1.55;;
69703;SDS011;56967;43.538;-5.646;2022-10-24T13:40:57;7.45;;;1.60;;
69703;SDS011;56967;43.538;-5.646;2022-10-24T13:43:23;6.10;;;1.55;;
69703;SDS011;56967;43.538;-5.646;2022-10-24T13:45:54;7.32;;;1.30;;
69703;SDS011;56967;43.538;-5.646;2022-10-24T13:48:24;6.43;;;1.50;;
69703;SDS011;56967;43.538;-5.646;2022-10-24T13:53:44;6.03;;;1.80;;
69703;SDS011;56967;43.538;-5.646;2022-10-24T13:56:16;8.82;;;1.60;;
69703;SDS011;56967;43.538;-5.646;2022-10-24T13:58:43;9.10;;;1.50;;
69703;SDS011;56967;43.538;-5.646;2022-10-24T14:01:19;6.43;;;1.55;;
69703;SDS011;56967;43.538;-5.646;2022-10-24T14:03:49;6.88;;;1.38;;
69703;SDS011;56967;43.538;-5.646;2022-10-24T14:06:21;6.43;;;1.23;;
69703;SDS011;56967;43.538;-5.646;2022-10-24T14:08:49;7.18;;;1.40;;
69703;SDS011;56967;43.538;-5.646;2022-10-24T14:11:21;6.97;;;1.27;;
69703;SDS011;56967;43.538;-5.646;2022-10-24T14:13:50;9.10;;;1.50;;
69703;SDS011;56967;43.538;-5.646;2022-10-24T14:16:24;6.93;;;1.13;;
69703;SDS011;56967;43.538;-5.646;2022-10-24T14:18:50;7.80;;;1.10;;
69703;SDS011;56967;43.538;-5.646;2022-10-24T14:21:18;6.00;;;1.40;;
69703;SDS011;56967;43.538;-5.646;2022-10-24T14:23:58;7.75;;;1.40;;
69703;SDS011;56967;43.538;-5.646;2022-10-24T14:26:25;6.05;;;1.70;;
69703;SDS011;56967;43.538;-5.646;2022-10-24T14:28:56;7.85;;;1.30;;
69703;SDS011;56967;43.538;-5.646;2022-10-24T14:31:28;5.47;;;1.42;;
69703;SDS011;56967;43.538;-5.646;2022-10-24T14:33:59;3.80;;;1.20;;
69703;SDS011;56967;43.538;-5.646;2022-10-24T14:36:27;8.65;;;1.52;;
69703;SDS011;56967;43.538;-5.646;2022-10-24T14:38:54;7.18;;;1.40;;
69703;SDS011;56967;43.538;-5.646;2022-10-24T14:41:29;5.80;;;1.23;;
69703;SDS011;56967;43.538;-5.646;2022-10-24T14:43:57;5.40;;;1.30;;
69703;SDS011;56967;43.538;-5.646;2022-10-24T14:48:52;4.50;;;1.40;;
69703;SDS011;56967;43.538;-5.646;2022-10-24T14:53:53;6.20;;;1.40;;
69703;SDS011;56967;43.538;-5.646;2022-10-24T14:56:24;7.95;;;1.30;;
69703;SDS011;56967;43.538;-5.646;2022-10-24T14:58:59;6.57;;;1.08;;
69703;SDS011;56967;43.538;-5.646;2022-10-24T15:01:27;8.07;;;1.60;;
69703;SDS011;56967;43.538;-5.646;2022-10-24T15:04:00;6.05;;;1.20;;
69703;SDS011;56967;43.538;-5.646;2022-10-24T15:06:38;5.93;;;1.23;;
69703;SDS011;56967;43.538;-5.646;2022-10-24T15:11:40;5.28;;;1.40;;
69703;SDS011;56967;43.538;-5.646;2022-10-24T15:17:48;4.40;;;1.38;;
69703;SDS011;56967;43.538;-5.646;2022-10-24T15:19:54;9.07;;;1.95;;
69703;SDS011;56967;43.538;-5.646;2022-10-24T15:22:23;7.53;;;1.20;;
69703;SDS011;56967;43.538;-5.646;2022-10-24T15:24:58;6.00;;;1.48;;
69703;SDS011;56967;43.538;-5.646;2022-10-24T15:27:28;3.28;;;1.05;;
69703;SDS011;56967;43.538;-5.646;2022-10-24T15:30:01;7.50;;;1.38;;
69703;SDS011;56967;43.538;-5.646;2022-10-24T15:32:28;4.93;;;1.20;;
69703;SDS011;56967;43.538;-5.646;2022-10-24T15:34:53;6.60;;;1.10;;
69703;SDS011;56967;43.538;-5.646;2022-10-24T15:37:20;4.43;;;1.30;;
69703;SDS011;56967;43.538;-5.646;2022-10-24T15:39:48;7.40;;;1.25;;
69703;SDS011;56967;43.538;-5.646;2022-10-24T15:42:14;5.63;;;1.35;;
69703;SDS011;56967;43.538;-5.646;2022-10-24T15:44:40;5.82;;;1.42;;
69703;SDS011;56967;43.538;-5.646;2022-10-24T15:47:05;9.55;;;1.40;;
69703;SDS011;56967;43.538;-5.646;2022-10-24T15:49:32;4.35;;;1.10;;
69703;SDS011;56967;43.538;-5.646;2022-10-24T15:51:58;7.38;;;1.38;;
69703;SDS011;56967;43.538;-5.646;2022-10-24T15:54:24;6.18;;;1.50;;
69703;SDS011;56967;43.538;-5.646;2022-10-24T15:56:51;8.25;;;1.45;;
69703;SDS011;56967;43.538;-5.646;2022-10-24T15:59:18;8.13;;;1.33;;
69703;SDS011;56967;43.538;-5.646;2022-10-24T16:01:46;8.60;;;1.48;;
69703;SDS011;56967;43.538;-5.646;2022-10-24T16:04:14;7.85;;;1.70;;
69703;SDS011;56967;43.538;-5.646;2022-10-24T16:06:41;7.22;;;1.67;;
69703;SDS011;56967;43.538;-5.646;2022-10-24T16:09:14;8.55;;;1.50;;
69703;SDS011;56967;43.538;-5.646;2022-10-24T16:11:44;7.32;;;1.38;;
69703;SDS011;56967;43.538;-5.646;2022-10-24T16:14:14;5.97;;;1.67;;
69703;SDS011;56967;43.538;-5.646;2022-10-24T16:16:45;5.68;;;1.55;;
69703;SDS011;56967;43.538;-5.646;2022-10-24T16:19:10;6.45;;;1.60;;
69703;SDS011;56967;43.538;-5.646;2022-10-24T16:21:36;7.13;;;1.70;;
69703;SDS011;56967;43.538;-5.646;2022-10-24T16:24:03;4.80;;;1.45;;
69703;SDS011;56967;43.538;-5.646;2022-10-24T16:26:29;7.07;;;1.70;;
69703;SDS011;56967;43.538;-5.646;2022-10-24T16:28:55;11.30;;;1.73;;
69703;SDS011;56967;43.538;-5.646;2022-10-24T16:31:20;6.40;;;1.45;;
69703;SDS011;56967;43.538;-5.646;2022-10-24T16:33:49;6.05;;;1.55;;
69703;SDS011;56967;43.538;-5.646;2022-10-24T16:36:16;6.43;;;1.70;;
69703;SDS011;56967;43.538;-5.646;2022-10-24T16:38:42;5.97;;;1.70;;
69703;SDS011;56967;43.538;-5.646;2022-10-24T16:41:27;7.78;;;2.00;;
69703;SDS011;56967;43.538;-5.646;2022-10-24T16:43:54;6.72;;;1.83;;
69703;SDS011;56967;43.538;-5.646;2022-10-24T16:46:20;5.90;;;1.95;;
69703;SDS011;56967;43.538;-5.646;2022-10-24T16:48:46;9.40;;;1.83;;
69703;SDS011;56967;43.538;-5.646;2022-10-24T16:51:14;8.02;;;1.75;;
69703;SDS011;56967;43.538;-5.646;2022-10-24T16:53:42;7.20;;;1.80;;
69703;SDS011;56967;43.538;-5.646;2022-10-24T16:56:08;7.97;;;1.77;;
69703;SDS011;56967;43.538;-5.646;2022-10-24T16:58:35;9.25;;;1.77;;
69703;SDS011;56967;43.538;-5.646;2022-10-24T17:01:05;5.47;;;1.40;;
69703;SDS011;56967;43.538;-5.646;2022-10-24T17:03:32;4.57;;;1.35;;
69703;SDS011;56967;43.538;-5.646;2022-10-24T17:05:58;6.95;;;1.65;;
69703;SDS011;56967;43.538;-5.646;2022-10-24T17:08:24;5.90;;;1.50;;
69703;SDS011;56967;43.538;-5.646;2022-10-24T17:10:51;8.68;;;1.60;;
69703;SDS011;56967;43.538;-5.646;2022-10-24T17:13:21;9.82;;;2.13;;